Time;durP1;ratioP1;P1;durP2;ratioP2;P2;SDS_P1;SDS_P2;PMS_P1;PMS_P2;Temp;Humidity;BMP_temperature;BMP_pressure;BME280_temperature;BME280_humidity;BME280_pressure;Samples;Min_cycle;Max_cycle;Signal;HPM_P1;HPM_P2
2021/11/04 00:00:31;;;;;;;0.40;0.30;;;;;;;8.47;96.87;99758.84;5032834;28;20825;-68
2021/11/04 00:02:57;;;;;;;1.27;1.17;;;;;;;8.49;97.54;99764.72;5032447;28;20963;-68
2021/11/04 00:05:24;;;;;;;0.40;0.30;;;;;;;8.50;98.06;99760.91;5032807;28;20887;-68
2021/11/04 00:07:52;;;;;;;0.40;0.30;;;;;;;8.56;97.95;99748.91;5032852;28;20447;-69
2021/11/04 00:10:19;;;;;;;0.40;0.30;;;;;;;8.53;98.42;99747.59;5032586;28;20960;-68
2021/11/04 00:12:48;;;;;;;0.40;0.30;;;;;;;8.53;98.52;99749.50;5032739;28;20439;-68
2021/11/04 00:15:14;;;;;;;0.50;0.40;;;;;;;8.54;98.78;99756.50;5032919;28;20467;-68
2021/11/04 00:17:41;;;;;;;0.83;0.83;;;;;;;8.56;98.56;99751.59;5032640;28;20941;-68
2021/11/04 00:20:10;;;;;;;0.40;0.30;;;;;;;8.61;98.47;99742.59;5032754;28;20443;-68
2021/11/04 00:22:37;;;;;;;0.40;0.30;;;;;;;8.62;98.49;99733.38;5032650;28;20447;-68
2021/11/04 00:25:06;;;;;;;0.40;0.30;;;;;;;8.60;98.23;99739.09;5035948;28;20482;-68
2021/11/04 00:27:32;;;;;;;0.40;0.30;;;;;;;8.60;98.45;99741.78;5036398;28;20878;-68
2021/11/04 00:30:00;;;;;;;0.40;0.30;;;;;;;8.61;98.02;99734.47;5036345;28;20439;-68
2021/11/04 00:32:27;;;;;;;0.40;0.30;;;;;;;8.53;97.36;99738.72;5036326;28;20455;-68
2021/11/04 00:34:53;;;;;;;1.03;1.03;;;;;;;8.46;96.68;99735.66;5035892;28;20508;-68
2021/11/04 00:37:20;;;;;;;0.40;0.20;;;;;;;8.38;96.40;99723.72;5036228;28;20795;-69
2021/11/04 00:39:46;;;;;;;0.40;0.20;;;;;;;8.38;96.40;99717.50;5036130;28;20500;-69
2021/11/04 00:42:12;;;;;;;0.40;0.30;;;;;;;8.38;96.49;99707.53;5035811;28;20566;-68
2021/11/04 00:44:39;;;;;;;0.40;0.30;;;;;;;8.41;96.41;99708.78;5035929;28;20533;-69
2021/11/04 00:47:07;;;;;;;0.40;0.30;;;;;;;8.32;97.21;99725.72;5036021;28;20438;-68
2021/11/04 00:49:34;;;;;;;0.40;0.30;;;;;;;8.41;96.77;99725.81;5035712;28;20546;-68
2021/11/04 00:52:01;;;;;;;0.40;0.30;;;;;;;8.43;96.80;99720.88;5035921;28;20447;-68
2021/11/04 00:54:27;;;;;;;0.40;0.30;;;;;;;8.41;97.75;99717.72;5035713;28;20466;-69
2021/11/04 00:56:54;;;;;;;0.40;0.30;;;;;;;8.48;97.85;99709.94;5035847;28;20432;-69
2021/11/04 00:59:20;;;;;;;0.40;0.20;;;;;;;8.46;98.32;99709.47;5035528;28;20948;-68
2021/11/04 01:01:47;;;;;;;0.40;0.30;;;;;;;8.46;98.67;99701.38;5035395;28;20925;-68
2021/11/04 01:04:14;;;;;;;0.40;0.30;;;;;;;8.49;98.64;99695.34;5035672;28;20519;-67
2021/11/04 01:06:41;;;;;;;0.40;0.30;;;;;;;8.47;98.75;99705.66;5035530;28;20474;-67
2021/11/04 01:09:07;;;;;;;0.40;0.30;;;;;;;8.50;98.77;99704.25;5035615;28;20853;-68
2021/11/04 01:11:34;;;;;;;0.70;0.60;;;;;;;8.51;99.19;99711.25;5035671;28;20819;-67
2021/11/04 01:14:00;;;;;;;0.40;0.30;;;;;;;8.56;98.85;99714.59;5036816;28;20843;-67
2021/11/04 01:16:28;;;;;;;0.40;0.30;;;;;;;8.64;98.38;99714.97;5035378;28;20455;-68
2021/11/04 01:18:54;;;;;;;0.40;0.30;;;;;;;8.56;98.63;99720.00;5035414;28;20458;-68
2021/11/04 01:21:22;;;;;;;0.50;0.47;;;;;;;8.56;98.74;99721.91;5035115;28;20450;-68
2021/11/04 01:23:49;;;;;;;0.40;0.20;;;;;;;8.57;98.28;99710.81;5035217;28;20513;-68
2021/11/04 01:26:15;;;;;;;3.73;3.50;;;;;;;8.54;97.30;99703.34;5035102;28;20462;-68
2021/11/04 01:28:42;;;;;;;0.40;0.20;;;;;;;8.49;96.58;99695.34;5035245;28;20438;-68
2021/11/04 01:31:08;;;;;;;0.40;0.30;;;;;;;8.42;95.33;99702.31;5035157;28;20451;-67
2021/11/04 01:33:35;;;;;;;0.40;0.30;;;;;;;8.44;95.11;99700.09;5035110;28;20439;-67
2021/11/04 01:36:01;;;;;;;0.40;0.30;;;;;;;8.39;94.88;99697.53;5034046;28;20459;-68
2021/11/04 01:38:29;;;;;;;0.50;0.40;;;;;;;8.34;94.97;99701.91;5035095;28;20455;-68
2021/11/04 01:40:55;;;;;;;0.40;0.30;;;;;;;8.28;95.07;99697.75;5035273;28;20443;-68
2021/11/04 01:43:22;;;;;;;2.10;1.20;;;;;;;8.27;94.85;99690.72;5034945;28;20447;-67
2021/11/04 01:45:49;;;;;;;0.40;0.30;;;;;;;8.28;95.49;99691.56;5034804;28;20482;-68
2021/11/04 01:48:17;;;;;;;0.40;0.30;;;;;;;8.31;96.53;99685.53;5034847;28;20483;-67
2021/11/04 01:50:44;;;;;;;0.80;0.80;;;;;;;8.28;97.29;99684.25;5034562;28;20436;-68
2021/11/04 01:53:11;;;;;;;0.40;0.20;;;;;;;8.27;98.19;99676.44;5034506;28;20944;-67
2021/11/04 01:55:40;;;;;;;0.40;0.30;;;;;;;8.27;98.08;99668.34;5034407;28;20818;-68
2021/11/04 01:58:06;;;;;;;0.53;0.53;;;;;;;8.28;98.19;99676.16;5034752;28;20455;-67
2021/11/04 02:00:33;;;;;;;0.40;0.30;;;;;;;8.31;98.38;99672.03;5034652;28;20434;-68
2021/11/04 02:03:06;;;;;;;0.40;0.30;;;;;;;8.32;98.67;99670.94;5034612;28;20447;-68
2021/11/04 02:05:43;;;;;;;0.40;0.30;;;;;;;8.36;98.51;99666.50;5034116;28;20992;-67
2021/11/04 02:08:16;;;;;;;0.40;0.30;;;;;;;8.38;98.17;99666.25;5034482;28;20461;-67
2021/11/04 02:10:48;;;;;;;0.40;0.30;;;;;;;8.36;98.38;99669.22;5034144;28;20910;-68
2021/11/04 02:13:18;;;;;;;0.40;0.30;;;;;;;8.37;98.41;99661.94;5034448;28;20438;-68
2021/11/04 02:15:48;;;;;;;0.50;0.37;;;;;;;8.34;98.39;99661.44;5034304;28;20467;-68
2021/11/04 02:18:18;;;;;;;0.67;0.67;;;;;;;8.29;97.94;99661.56;5034690;28;20454;-68
2021/11/04 02:20:55;;;;;;;0.40;0.30;;;;;;;8.21;97.21;99648.03;5034255;28;20455;-68
2021/11/04 02:23:27;;;;;;;0.40;0.30;;;;;;;8.18;96.23;99644.03;5034248;28;20423;-68
2021/11/04 02:25:56;;;;;;;0.40;0.20;;;;;;;8.19;95.92;99634.84;5034098;28;20906;-68
2021/11/04 02:28:23;;;;;;;0.40;0.30;;;;;;;8.12;96.48;99628.28;5033824;28;20443;-68
2021/11/04 02:30:50;;;;;;;0.40;0.30;;;;;;;8.05;96.25;99624.13;5034181;28;20458;-67
2021/11/04 02:33:18;;;;;;;0.40;0.30;;;;;;;8.04;95.87;99608.25;5034388;28;20443;-67
2021/11/04 02:35:51;;;;;;;0.40;0.30;;;;;;;7.97;95.49;99605.19;5033906;28;20533;-68
2021/11/04 02:38:19;;;;;;;1.90;1.80;;;;;;;7.88;96.10;99604.31;5034028;28;20434;-68
2021/11/04 02:40:46;;;;;;;0.40;0.30;;;;;;;7.90;97.27;99600.22;5033923;28;20855;-68
2021/11/04 02:43:16;;;;;;;0.40;0.30;;;;;;;7.96;98.45;99598.19;5033928;28;20439;-67
2021/11/04 02:45:43;;;;;;;0.40;0.27;;;;;;;7.98;98.97;99598.72;5033674;28;20574;-67
2021/11/04 02:48:09;;;;;;;0.40;0.20;;;;;;;8.02;99.16;99597.00;5033027;28;20450;-68
2021/11/04 02:50:36;;;;;;;0.40;0.30;;;;;;;8.05;99.33;99590.97;5033337;28;20493;-67
2021/11/04 02:53:02;;;;;;;0.50;0.47;;;;;;;8.03;99.52;99583.19;5033703;28;20454;-68
2021/11/04 02:55:33;;;;;;;0.40;0.27;;;;;;;8.00;99.82;99574.91;5033508;28;20483;-68
2021/11/04 02:58:04;;;;;;;0.40;0.30;;;;;;;8.06;99.55;99577.19;5033577;28;20443;-68
2021/11/04 03:00:33;;;;;;;0.40;0.30;;;;;;;8.00;99.83;99578.41;5033272;28;20901;-68
2021/11/04 03:02:59;;;;;;;0.40;0.30;;;;;;;8.10;99.76;99582.72;5033562;28;20473;-68
2021/11/04 03:05:26;;;;;;;2.10;2.00;;;;;;;8.12;99.25;99575.16;5033352;28;20510;-68
2021/11/04 03:07:52;;;;;;;2.40;2.20;;;;;;;8.17;99.38;99582.31;5033180;28;20824;-68
2021/11/04 03:10:19;;;;;;;0.40;0.20;;;;;;;8.16;99.20;99576.13;5033490;28;20443;-67
2021/11/04 03:12:46;;;;;;;0.40;0.30;;;;;;;8.15;99.04;99590.72;5033369;28;20443;-67
2021/11/04 03:15:16;;;;;;;0.40;0.30;;;;;;;8.17;98.15;99596.59;5033365;28;20991;-68
2021/11/04 03:17:47;;;;;;;0.40;0.30;;;;;;;8.11;97.19;99599.75;5033382;28;20430;-68
2021/11/04 03:20:15;;;;;;;0.40;0.20;;;;;;;8.08;96.49;99601.13;5033340;28;20423;-68
2021/11/04 03:22:42;;;;;;;0.40;0.30;;;;;;;8.14;95.89;99607.19;5033481;28;20439;-68
2021/11/04 03:25:10;;;;;;;1.57;1.47;;;;;;;8.08;96.12;99618.13;5032817;28;20490;-68
2021/11/04 03:27:40;;;;;;;0.40;0.30;;;;;;;8.11;95.88;99622.09;5033380;28;20446;-68
2021/11/04 03:30:09;;;;;;;0.40;0.30;;;;;;;8.10;95.93;99625.88;5033218;28;20454;-68
2021/11/04 03:32:37;;;;;;;1.43;1.33;;;;;;;8.10;95.71;99609.69;5033126;28;20444;-68
2021/11/04 03:35:07;;;;;;;0.50;0.50;;;;;;;8.12;96.71;99618.31;5033056;28;20493;-68
2021/11/04 03:37:33;;;;;;;0.40;0.30;;;;;;;8.18;96.91;99613.56;5033108;28;20440;-68
2021/11/04 03:40:00;;;;;;;0.40;0.30;;;;;;;8.24;97.72;99615.84;5032847;28;20936;-68
2021/11/04 03:42:28;;;;;;;0.50;0.50;;;;;;;8.26;98.10;99618.22;5033057;28;20446;-67
2021/11/04 03:44:55;;;;;;;0.40;0.27;;;;;;;8.33;98.12;99613.19;5032910;28;20497;-68
2021/11/04 03:47:22;;;;;;;0.93;0.93;;;;;;;8.30;98.14;99614.59;5032730;28;20521;-68
2021/11/04 03:49:51;;;;;;;0.40;0.30;;;;;;;8.34;97.77;99604.78;5032975;28;20455;-68
2021/11/04 03:52:20;;;;;;;0.40;0.30;;;;;;;8.34;98.01;99603.97;5032647;28;20944;-68
2021/11/04 03:54:47;;;;;;;0.40;0.30;;;;;;;8.31;98.04;99594.59;5032847;28;20475;-68
2021/11/04 03:57:14;;;;;;;2.50;2.30;;;;;;;8.36;98.44;99585.56;5033159;28;20489;-68
2021/11/04 03:59:40;;;;;;;0.40;0.30;;;;;;;8.32;98.19;99574.63;5035616;28;20451;-68
2021/11/04 04:02:08;;;;;;;0.50;0.40;;;;;;;8.32;98.42;99563.81;5036982;28;20447;-67
2021/11/04 04:04:34;;;;;;;0.40;0.20;;;;;;;8.30;98.35;99560.63;5036724;28;20478;-68
2021/11/04 04:07:01;;;;;;;0.50;0.40;;;;;;;8.23;98.35;99557.56;5036436;28;20439;-68
2021/11/04 04:09:29;;;;;;;0.40;0.30;;;;;;;8.31;98.43;99572.22;5036375;28;20954;-68
2021/11/04 04:11:55;;;;;;;0.40;0.30;;;;;;;8.35;97.04;99573.19;5036654;28;21023;-68
2021/11/04 04:14:22;;;;;;;0.40;0.30;;;;;;;8.26;95.43;99569.66;5036694;28;20446;-68
2021/11/04 04:16:49;;;;;;;0.40;0.20;;;;;;;8.17;95.43;99563.44;5036629;28;20828;-68
2021/11/04 04:19:16;;;;;;;0.40;0.30;;;;;;;8.11;95.72;99551.19;5036552;28;20443;-68
2021/11/04 04:21:43;;;;;;;0.40;0.30;;;;;;;8.04;96.05;99552.41;5036517;28;20861;-68
2021/11/04 04:24:10;;;;;;;0.50;0.50;;;;;;;8.07;96.28;99545.63;5036427;28;20448;-68
2021/11/04 04:26:37;;;;;;;0.40;0.30;;;;;;;8.07;96.38;99540.22;5036280;28;20494;-68
2021/11/04 04:29:04;;;;;;;0.40;0.30;;;;;;;8.10;96.28;99534.19;5036340;28;20453;-68
2021/11/04 04:31:30;;;;;;;0.40;0.30;;;;;;;8.08;97.40;99531.81;5036339;28;20469;-68
2021/11/04 04:33:57;;;;;;;0.40;0.30;;;;;;;8.11;97.76;99535.00;5035931;28;20902;-69
2021/11/04 04:36:23;;;;;;;0.40;0.30;;;;;;;8.14;98.17;99524.38;5036184;28;20459;-69
2021/11/04 04:38:50;;;;;;;0.40;0.30;;;;;;;8.14;98.41;99535.16;5036216;28;20501;-71
2021/11/04 04:41:16;;;;;;;0.57;0.53;;;;;;;8.10;98.56;99526.09;5036310;28;20458;-70
2021/11/04 04:43:44;;;;;;;0.50;0.40;;;;;;;8.11;99.03;99527.72;5036149;28;20439;-70
2021/11/04 04:46:10;;;;;;;0.40;0.30;;;;;;;8.15;99.11;99528.69;5035594;28;21003;-70
2021/11/04 04:48:37;;;;;;;0.40;0.30;;;;;;;8.14;99.21;99532.47;5035707;28;20967;-71
2021/11/04 04:51:03;;;;;;;1.20;1.10;;;;;;;8.18;98.88;99536.13;5035919;28;20447;-70
2021/11/04 04:53:29;;;;;;;0.63;0.30;;;;;;;8.14;98.90;99529.75;5035943;28;20443;-70
2021/11/04 04:55:56;;;;;;;0.80;0.80;;;;;;;8.12;98.58;99525.81;5035502;28;20463;-70
2021/11/04 04:58:22;;;;;;;0.40;0.30;;;;;;;8.09;98.98;99530.69;5035493;28;20826;-70
2021/11/04 05:00:50;;;;;;;0.40;0.30;;;;;;;8.17;98.95;99534.53;5035790;28;20526;-70
2021/11/04 05:03:17;;;;;;;0.50;0.30;;;;;;;8.23;98.74;99527.09;5035687;28;20444;-70
2021/11/04 05:05:44;;;;;;;0.40;0.30;;;;;;;8.15;98.03;99525.97;5035481;28;20490;-70
2021/11/04 05:08:10;;;;;;;0.40;0.30;;;;;;;8.11;98.08;99529.63;5035576;28;20452;-70
2021/11/04 05:10:36;;;;;;;0.40;0.30;;;;;;;8.10;97.39;99520.69;5034254;28;20470;-70
2021/11/04 05:13:03;;;;;;;0.70;0.70;;;;;;;8.07;96.88;99521.34;5035593;28;20450;-70
2021/11/04 05:15:29;;;;;;;0.40;0.30;;;;;;;8.01;96.82;99515.28;5035464;28;20471;-70
2021/11/04 05:17:58;;;;;;;0.57;0.57;;;;;;;8.01;96.94;99518.00;5035677;28;20451;-71
2021/11/04 05:20:24;;;;;;;0.40;0.30;;;;;;;8.01;97.11;99519.88;5035371;28;20451;-70
2021/11/04 05:22:50;;;;;;;0.50;0.30;;;;;;;7.98;97.09;99515.91;5034983;28;20849;-70
2021/11/04 05:25:17;;;;;;;0.40;0.30;;;;;;;8.02;97.45;99508.00;5035194;28;20491;-70
2021/11/04 05:27:47;;;;;;;0.40;0.30;;;;;;;8.08;98.12;99496.75;5035296;28;20443;-70
2021/11/04 05:30:15;;;;;;;0.97;0.97;;;;;;;8.11;98.74;99495.34;5035222;28;20446;-68
2021/11/04 05:32:41;;;;;;;0.60;0.57;;;;;;;8.19;98.70;99499.97;5035245;28;20868;-68
2021/11/04 05:35:10;;;;;;;0.40;0.30;;;;;;;8.14;98.63;99494.69;5035211;28;20455;-68
2021/11/04 05:37:36;;;;;;;0.40;0.20;;;;;;;8.16;98.59;99500.59;5034925;28;20435;-68
2021/11/04 05:40:03;;;;;;;0.97;0.87;;;;;;;8.18;98.75;99492.19;5034997;28;20454;-68
2021/11/04 05:42:29;;;;;;;2.10;2.00;;;;;;;8.18;98.72;99482.19;5034505;28;20827;-68
2021/11/04 05:44:56;;;;;;;0.40;0.30;;;;;;;8.12;98.75;99488.84;5034629;28;20514;-68
2021/11/04 05:47:22;;;;;;;0.40;0.30;;;;;;;8.06;99.15;99479.31;5034712;28;20443;-68
2021/11/04 05:49:49;;;;;;;0.40;0.20;;;;;;;8.11;99.37;99481.06;5034753;28;20454;-68
2021/11/04 05:52:16;;;;;;;0.60;0.60;;;;;;;8.13;99.15;99482.34;5034661;28;20439;-68
2021/11/04 05:54:43;;;;;;;2.90;2.73;;;;;;;8.14;99.02;99483.91;5034230;28;21159;-68
2021/11/04 05:57:09;;;;;;;0.40;0.30;;;;;;;8.16;99.01;99480.94;5034362;28;20436;-68
2021/11/04 05:59:36;;;;;;;0.40;0.30;;;;;;;8.05;98.48;99475.78;5034932;28;20447;-68
2021/11/04 06:02:02;;;;;;;0.40;0.30;;;;;;;7.96;97.61;99476.88;5034656;28;20450;-68
2021/11/04 06:04:32;;;;;;;0.40;0.30;;;;;;;7.88;98.07;99477.63;5034584;28;20443;-67
2021/11/04 06:06:59;;;;;;;0.40;0.30;;;;;;;7.87;97.97;99470.63;5034463;28;20479;-67
2021/11/04 06:09:27;;;;;;;0.40;0.30;;;;;;;7.90;98.32;99465.44;5034537;28;20447;-67
2021/11/04 06:11:53;;;;;;;0.40;0.30;;;;;;;7.91;97.85;99468.91;5034407;28;20451;-68
2021/11/04 06:14:19;;;;;;;0.40;0.30;;;;;;;7.94;97.54;99463.69;5034111;28;20948;-68
2021/11/04 06:16:46;;;;;;;0.40;0.27;;;;;;;7.96;97.37;99464.19;5034283;28;20992;-67
2021/11/04 06:19:12;;;;;;;0.40;0.30;;;;;;;7.97;97.16;99463.09;5034351;28;20439;-67
2021/11/04 06:21:39;;;;;;;0.40;0.30;;;;;;;7.99;98.01;99460.88;5034162;28;20818;-68
2021/11/04 06:24:05;;;;;;;0.40;0.30;;;;;;;8.01;99.11;99453.28;5034249;28;20446;-67
2021/11/04 06:26:33;;;;;;;1.60;1.50;;;;;;;8.09;99.12;99459.78;5034044;28;20483;-68
2021/11/04 06:28:59;;;;;;;0.40;0.20;;;;;;;8.04;99.63;99457.22;5033692;28;20815;-67
2021/11/04 06:31:26;;;;;;;0.57;0.50;;;;;;;8.09;99.73;99449.00;5033989;28;20458;-68
2021/11/04 06:33:52;;;;;;;1.93;1.83;;;;;;;7.97;100.00;99444.22;5034018;28;20442;-67
2021/11/04 06:36:19;;;;;;;0.40;0.27;;;;;;;8.06;99.92;99442.34;5033915;28;20470;-67
2021/11/04 06:38:45;;;;;;;0.40;0.30;;;;;;;8.10;100.00;99439.78;5033903;28;20439;-67
2021/11/04 06:41:12;;;;;;;0.40;0.30;;;;;;;8.11;100.00;99449.50;5034142;28;20439;-67
2021/11/04 06:43:41;;;;;;;0.80;0.80;;;;;;;8.14;100.00;99446.16;5033662;28;20443;-67
2021/11/04 06:46:08;;;;;;;0.50;0.50;;;;;;;8.18;99.93;99436.34;5033368;28;20502;-67
2021/11/04 06:48:42;;;;;;;0.40;0.30;;;;;;;8.16;99.85;99427.78;5033744;28;20443;-67
2021/11/04 06:51:10;;;;;;;0.40;0.30;;;;;;;8.18;99.61;99427.44;5033365;28;20458;-67
2021/11/04 06:53:43;;;;;;;0.40;0.30;;;;;;;8.15;98.99;99420.00;5033690;28;20448;-67
2021/11/04 06:56:10;;;;;;;0.40;0.40;;;;;;;8.15;99.03;99420.78;5033380;28;20471;-67
2021/11/04 06:58:38;;;;;;;2.40;2.20;;;;;;;8.14;98.00;99413.00;5033570;28;20866;-67
2021/11/04 07:01:09;;;;;;;4.67;4.33;;;;;;;8.05;98.44;99405.69;5033481;28;20458;-67
2021/11/04 07:03:43;;;;;;;0.40;0.20;;;;;;;8.05;98.50;99412.97;5033450;28;20424;-67
2021/11/04 07:06:11;;;;;;;0.40;0.30;;;;;;;8.07;98.30;99416.16;5033340;28;20578;-68
2021/11/04 07:08:43;;;;;;;0.40;0.30;;;;;;;8.02;98.17;99413.63;5033437;28;20454;-67
2021/11/04 07:11:10;;;;;;;0.40;0.30;;;;;;;8.00;98.20;99421.22;5033152;28;21012;-67
2021/11/04 07:13:37;;;;;;;5.50;4.13;;;;;;;7.91;99.68;99423.09;5034506;28;20991;-69
2021/11/04 07:16:04;;;;;;;0.40;0.30;;;;;;;7.98;100.00;99428.84;5033370;28;20459;-69
2021/11/04 07:18:32;;;;;;;0.40;0.30;;;;;;;8.03;100.00;99434.88;5033219;28;20435;-69
2021/11/04 07:21:04;;;;;;;5.90;3.40;;;;;;;8.12;100.00;99434.91;5033353;28;20447;-69
2021/11/04 07:23:38;;;;;;;0.40;0.30;;;;;;;8.15;100.00;99434.28;5033204;28;20494;-69
2021/11/04 07:26:06;;;;;;;0.40;0.30;;;;;;;8.22;100.00;99425.72;5033138;28;20509;-69
2021/11/04 07:28:34;;;;;;;0.40;0.30;;;;;;;8.18;100.00;99420.16;5033118;28;20817;-68
2021/11/04 07:31:01;;;;;;;0.40;0.30;;;;;;;8.21;100.00;99421.44;5033152;28;20847;-68
2021/11/04 07:33:34;;;;;;;0.50;0.30;;;;;;;8.19;100.00;99419.06;5032363;28;20435;-71
2021/11/04 07:36:03;;;;;;;0.40;0.30;;;;;;;8.25;100.00;99411.63;5033076;28;20466;-68
2021/11/04 07:38:32;;;;;;;0.40;0.30;;;;;;;8.24;100.00;99410.81;5033104;28;20440;-69
2021/11/04 07:40:59;;;;;;;3.80;3.60;;;;;;;8.28;100.00;99405.59;5033354;28;20454;-70
2021/11/04 07:43:28;;;;;;;1.07;1.07;;;;;;;8.30;100.00;99398.75;5033033;28;20446;-70
2021/11/04 07:45:55;;;;;;;0.40;0.30;;;;;;;8.37;99.79;99392.13;5032897;28;20521;-70
2021/11/04 07:48:23;;;;;;;0.40;0.30;;;;;;;8.32;98.78;99387.66;5032979;28;20447;-70
2021/11/04 07:50:50;;;;;;;4.33;4.03;;;;;;;8.14;99.15;99392.22;5032724;28;20945;-70
2021/11/04 07:53:18;;;;;;;0.40;0.30;;;;;;;8.17;99.23;99380.00;5032942;28;20448;-70
2021/11/04 07:55:45;;;;;;;3.80;3.53;;;;;;;8.07;99.00;99375.72;5032714;28;20467;-70
2021/11/04 07:58:11;;;;;;;0.50;0.47;;;;;;;8.06;99.34;99371.44;5032928;28;20443;-70
2021/11/04 08:00:37;;;;;;;0.40;0.30;;;;;;;8.12;100.00;99375.56;5032946;28;20454;-70
2021/11/04 08:03:05;;;;;;;1.13;1.13;;;;;;;8.18;99.71;99373.50;5032675;28;20839;-70
2021/11/04 08:05:32;;;;;;;0.40;0.30;;;;;;;8.22;99.69;99361.78;5032665;28;20462;-70
2021/11/04 08:08:00;;;;;;;1.23;1.13;;;;;;;8.29;99.70;99362.09;5032503;28;20459;-69
2021/11/04 08:10:26;;;;;;;0.40;0.30;;;;;;;8.24;100.00;99350.69;5032776;28;20443;-70
2021/11/04 08:12:53;;;;;;;3.60;2.57;;;;;;;8.14;100.00;99350.97;5032811;28;20447;-70
2021/11/04 08:15:19;;;;;;;1.00;1.00;;;;;;;8.23;100.00;99343.69;5032675;28;20853;-70
2021/11/04 08:17:46;;;;;;;0.40;0.30;;;;;;;8.31;100.00;99349.09;5032911;28;20439;-69
2021/11/04 08:20:12;;;;;;;0.40;0.30;;;;;;;8.27;100.00;99350.81;5032726;28;20462;-70
2021/11/04 08:22:39;;;;;;;0.77;0.77;;;;;;;8.33;100.00;99351.47;5032683;28;20443;-70
2021/11/04 08:25:08;;;;;;;4.70;4.30;;;;;;;8.33;100.00;99343.41;5032495;28;20980;-73
2021/11/04 08:27:35;;;;;;;0.40;0.20;;;;;;;8.33;100.00;99344.19;5032612;28;20483;-71
2021/11/04 08:30:02;;;;;;;0.77;0.77;;;;;;;8.32;100.00;99341.78;5032836;28;20447;-70
2021/11/04 08:32:28;;;;;;;0.40;0.30;;;;;;;8.39;100.00;99352.94;5032334;28;20940;-71
2021/11/04 08:34:55;;;;;;;0.40;0.40;;;;;;;8.38;100.00;99340.56;5032143;28;20467;-71
2021/11/04 08:37:22;;;;;;;0.40;0.30;;;;;;;8.33;100.00;99338.00;5032627;28;20479;-72
2021/11/04 08:39:48;;;;;;;0.40;0.30;;;;;;;8.26;100.00;99333.06;5032549;28;20473;-71
2021/11/04 08:42:16;;;;;;;0.40;0.30;;;;;;;8.33;100.00;99338.00;5032559;28;20446;-71
2021/11/04 08:44:43;;;;;;;0.40;0.30;;;;;;;8.32;100.00;99321.03;5032420;28;20455;-71
2021/11/04 08:47:10;;;;;;;0.40;0.20;;;;;;;8.26;100.00;99324.19;5035554;28;20591;-71
2021/11/04 08:49:37;;;;;;;5.90;2.30;;;;;;;8.21;100.00;99324.34;5036017;28;20447;-71
2021/11/04 08:52:05;;;;;;;0.40;0.30;;;;;;;8.18;100.00;99314.16;5035906;28;20451;-72
2021/11/04 08:54:32;;;;;;;0.77;0.67;;;;;;;8.15;100.00;99310.22;5035668;28;20463;-72
2021/11/04 08:56:58;;;;;;;0.40;0.30;;;;;;;8.08;100.00;99309.88;5035870;28;20430;-71
2021/11/04 08:59:26;;;;;;;0.47;0.30;;;;;;;8.09;100.00;99303.38;5035895;28;20454;-70
2021/11/04 09:01:53;;;;;;;0.93;0.93;;;;;;;8.10;100.00;99304.94;5035759;28;20443;-70
2021/11/04 09:04:19;;;;;;;0.40;0.30;;;;;;;8.10;100.00;99302.25;5035779;28;20443;-72
2021/11/04 09:06:48;;;;;;;0.40;0.30;;;;;;;7.86;100.00;99293.84;5035753;28;20487;-69
2021/11/04 09:09:15;;;;;;;1.27;1.23;;;;;;;7.85;100.00;99284.94;5035670;28;20526;-71
2021/11/04 09:11:41;;;;;;;0.40;0.20;;;;;;;7.79;100.00;99275.41;5035300;28;20454;-70
2021/11/04 09:14:08;;;;;;;0.40;0.30;;;;;;;7.68;100.00;99277.63;5035517;28;20443;-69
2021/11/04 09:16:36;;;;;;;0.40;0.20;;;;;;;7.68;100.00;99263.34;5035516;28;20463;-69
2021/11/04 09:19:03;;;;;;;0.40;0.30;;;;;;;7.71;100.00;99255.44;5035311;28;20486;-69
2021/11/04 09:21:29;;;;;;;0.40;0.30;;;;;;;7.74;100.00;99249.41;5035380;28;20450;-68
2021/11/04 09:23:56;;;;;;;0.40;0.30;;;;;;;7.56;100.00;99245.09;5035409;28;20471;-68
2021/11/04 09:26:22;;;;;;;0.40;0.30;;;;;;;7.61;100.00;99246.84;5035210;28;20498;-67
2021/11/04 09:28:49;;;;;;;0.40;0.40;;;;;;;7.60;100.00;99240.66;5035311;28;20443;-68
2021/11/04 09:31:16;;;;;;;0.70;0.70;;;;;;;7.61;100.00;99231.47;5035274;28;20454;-67
2021/11/04 09:33:43;;;;;;;0.40;0.30;;;;;;;7.64;100.00;99227.38;5035135;28;20497;-66
2021/11/04 09:36:10;;;;;;;0.40;0.30;;;;;;;7.63;100.00;99221.19;5035056;28;20517;-67
2021/11/04 09:38:37;;;;;;;0.93;0.93;;;;;;;7.54;100.00;99210.38;5035130;28;20439;-69
2021/11/04 09:41:04;;;;;;;0.50;0.40;;;;;;;7.48;100.00;99208.97;5035021;28;20439;-67
2021/11/04 09:43:32;;;;;;;0.40;0.27;;;;;;;7.46;100.00;99203.06;5035002;28;20438;-67
2021/11/04 09:46:00;;;;;;;0.40;0.33;;;;;;;7.46;100.00;99196.91;5034907;28;20460;-68
2021/11/04 09:48:29;;;;;;;0.40;0.20;;;;;;;7.34;100.00;99184.03;5034845;28;20443;-70
2021/11/04 09:50:57;;;;;;;0.40;0.30;;;;;;;7.43;100.00;99176.75;5034842;28;20446;-70
2021/11/04 09:53:24;;;;;;;0.40;0.30;;;;;;;7.46;100.00;99178.03;5034593;28;20962;-69
2021/11/04 09:55:51;;;;;;;0.40;0.30;;;;;;;7.47;100.00;99176.94;5034130;28;20494;-70
2021/11/04 09:58:17;;;;;;;1.03;1.03;;;;;;;7.44;100.00;99166.81;5034626;28;20446;-69
2021/11/04 10:00:44;;;;;;;1.10;1.00;;;;;;;7.42;100.00;99169.78;5034678;28;20497;-69
2021/11/04 10:03:13;;;;;;;0.40;0.30;;;;;;;7.42;100.00;99171.69;5034352;28;20443;-69
2021/11/04 10:05:43;;;;;;;0.40;0.30;;;;;;;7.37;100.00;99158.38;5034468;28;20466;-69
2021/11/04 10:08:14;;;;;;;0.40;0.30;;;;;;;7.34;100.00;99155.19;5034477;28;20487;-69
2021/11/04 10:10:40;;;;;;;0.40;0.30;;;;;;;7.30;100.00;99151.56;5034535;28;20427;-69
2021/11/04 10:13:09;;;;;;;0.40;0.30;;;;;;;7.36;100.00;99149.50;5034375;28;20454;-69
2021/11/04 10:15:37;;;;;;;0.40;0.30;;;;;;;7.26;100.00;99131.75;5034308;28;20470;-69
2021/11/04 10:18:12;;;;;;;0.40;0.30;;;;;;;7.12;100.00;99127.59;5034548;28;20487;-69
2021/11/04 10:20:39;;;;;;;0.40;0.30;;;;;;;7.16;100.00;99129.34;5034294;28;20443;-69
2021/11/04 10:23:08;;;;;;;0.40;0.30;;;;;;;7.18;100.00;99129.06;5034178;28;20442;-68
2021/11/04 10:25:36;;;;;;;0.40;0.30;;;;;;;7.17;100.00;99125.56;5034122;28;20459;-69
2021/11/04 10:28:26;;;;;;;0.40;0.30;;;;;;;7.15;100.00;99127.78;5034146;28;20919;-69
2021/11/04 10:30:52;;;;;;;1.13;1.13;;;;;;;7.09;100.00;99126.34;5034211;28;20428;-68
2021/11/04 10:33:21;;;;;;;0.40;0.30;;;;;;;7.01;100.00;99121.72;5034105;28;20450;-69
2021/11/04 10:36:06;;;;;;;0.50;0.40;;;;;;;7.02;100.00;99102.56;5033937;28;20470;-69
2021/11/04 10:38:36;;;;;;;0.40;0.30;;;;;;;6.99;100.00;99097.78;5034082;28;20415;-69
2021/11/04 10:41:05;;;;;;;0.50;0.50;;;;;;;7.02;100.00;99093.69;5034016;28;20431;-68
2021/11/04 10:43:33;;;;;;;0.40;0.33;;;;;;;7.05;100.00;99088.47;5033564;28;20439;-69
2021/11/04 10:46:01;;;;;;;0.40;0.20;;;;;;;7.01;100.00;99059.81;5033690;28;20462;-69
2021/11/04 10:48:29;;;;;;;0.70;0.70;;;;;;;7.08;100.00;99057.44;5033686;28;20517;-69
2021/11/04 10:50:56;;;;;;;0.40;0.20;;;;;;;7.02;100.00;99053.31;5033766;28;20444;-69
2021/11/04 10:53:24;;;;;;;0.40;0.30;;;;;;;6.98;100.00;99055.84;5033670;28;20439;-69
2021/11/04 10:55:52;;;;;;;0.40;0.30;;;;;;;7.00;100.00;99042.09;5033298;28;21000;-68
2021/11/04 10:58:34;;;;;;;0.40;0.20;;;;;;;7.11;100.00;99046.03;5033710;28;20949;-69
2021/11/04 11:01:02;;;;;;;1.70;1.60;;;;;;;7.17;100.00;99034.03;5033164;28;20930;-67
2021/11/04 11:03:29;;;;;;;1.90;1.80;;;;;;;7.15;100.00;99038.91;5033599;28;20439;-68
2021/11/04 11:05:58;;;;;;;0.40;0.30;;;;;;;7.12;100.00;99041.44;5033446;28;20526;-68
2021/11/04 11:08:27;;;;;;;0.40;0.27;;;;;;;7.04;100.00;99030.38;5032345;28;21023;-68
2021/11/04 11:10:54;;;;;;;0.40;0.30;;;;;;;7.06;100.00;99022.75;5033342;28;20435;-68
2021/11/04 11:13:20;;;;;;;0.40;0.30;;;;;;;7.12;100.00;99025.28;5033455;28;20443;-68
2021/11/04 11:15:54;;;;;;;0.40;0.27;;;;;;;7.06;100.00;99012.00;5033351;28;20462;-68
2021/11/04 11:18:23;;;;;;;0.40;0.30;;;;;;;7.06;100.00;99014.69;5033414;28;20423;-68
2021/11/04 11:20:50;;;;;;;0.77;0.70;;;;;;;7.12;100.00;99019.91;5033559;28;20455;-68
2021/11/04 11:23:18;;;;;;;0.40;0.23;;;;;;;7.19;100.00;99023.72;5033008;28;20821;-68
2021/11/04 11:25:48;;;;;;;0.40;0.30;;;;;;;7.32;100.00;99024.66;5032814;28;20977;-68
2021/11/04 11:28:15;;;;;;;0.40;0.30;;;;;;;7.17;100.00;99017.06;5033176;28;20569;-70
2021/11/04 11:30:41;;;;;;;0.40;0.30;;;;;;;7.30;100.00;99027.69;5033179;28;20851;-73
2021/11/04 11:33:19;;;;;;;0.40;0.30;;;;;;;7.48;100.00;99027.66;5033101;28;20458;-68
2021/11/04 11:36:08;;;;;;;0.40;0.30;;;;;;;7.57;100.00;99020.38;5032773;28;20466;-69
2021/11/04 11:39:08;;;;;;;0.67;0.67;;;;;;;7.57;100.00;99015.78;5033101;28;20435;-70
2021/11/04 11:42:01;;;;;;;0.40;0.30;;;;;;;7.62;100.00;99016.72;5033190;28;20451;-70